Time;durP1;ratioP1;P1;durP2;ratioP2;P2;SDS_P1;SDS_P2;PMS_P1;PMS_P2;Temp;Humidity;BMP_temperature;BMP_pressure;BME280_temperature;BME280_humidity;BME280_pressure;Samples;Min_cycle;Max_cycle;Signal;HPM_P1;HPM_P2
2021/01/07 00:00:25;;;;;;;41.65;22.25;;;;;;;1.08;93.92;100253.31;1769951;81;21280;-73
2021/01/07 00:02:52;;;;;;;42.00;21.93;;;;;;;1.09;94.00;100252.47;1770158;81;21608;-74
2021/01/07 00:05:20;;;;;;;46.50;24.27;;;;;;;1.08;94.04;100254.61;1770124;81;21129;-72
2021/01/07 00:07:47;;;;;;;38.73;18.67;;;;;;;1.08;94.14;100248.13;1769426;81;21162;-74
2021/01/07 00:10:17;;;;;;;35.88;17.82;;;;;;;1.10;94.25;100256.78;1769546;81;21707;-74
2021/01/07 00:12:44;;;;;;;33.48;16.55;;;;;;;1.09;94.27;100254.63;1769657;81;21181;-73
2021/01/07 00:15:13;;;;;;;30.10;15.60;;;;;;;1.10;94.38;100254.19;1769503;81;21370;-73
2021/01/07 00:17:41;;;;;;;38.58;17.42;;;;;;;1.04;94.57;100258.50;1789355;80;21624;-73
2021/01/07 00:20:10;;;;;;;38.10;19.27;;;;;;;1.01;94.79;100266.28;1750975;81;21153;-73
2021/01/07 00:22:38;;;;;;;41.30;20.30;;;;;;;0.96;95.21;100273.15;1716838;83;21200;-73
2021/01/07 00:25:09;;;;;;;43.85;18.95;;;;;;;0.96;95.42;100267.10;1716904;83;21212;-73
2021/01/07 00:27:36;;;;;;;39.55;19.37;;;;;;;0.96;95.67;100265.37;1746590;81;21368;-72
2021/01/07 00:30:08;;;;;;;41.95;19.48;;;;;;;0.98;95.73;100257.17;1746574;82;21193;-72
2021/01/07 00:32:35;;;;;;;46.63;21.05;;;;;;;0.95;96.01;100255.88;1746728;82;21126;-72
2021/01/07 00:35:04;;;;;;;44.42;21.35;;;;;;;0.96;96.08;100255.00;1746593;82;21187;-72
2021/01/07 00:37:33;;;;;;;34.20;15.63;;;;;;;0.97;96.17;100251.56;1746879;81;21185;-71
2021/01/07 00:40:00;;;;;;;25.17;12.35;;;;;;;0.93;96.12;100260.18;1746823;82;22135;-72
2021/01/07 00:42:28;;;;;;;34.25;17.98;;;;;;;0.89;96.01;100263.61;1746706;82;21170;-73
2021/01/07 00:44:56;;;;;;;30.65;15.50;;;;;;;0.84;96.11;100256.25;1746620;82;21106;-73
2021/01/07 00:47:23;;;;;;;32.48;15.30;;;;;;;0.83;96.19;100251.94;1748362;81;21194;-74
2021/01/07 00:49:50;;;;;;;28.30;13.65;;;;;;;0.82;96.36;100254.08;1723266;82;21253;-72
2021/01/07 00:52:19;;;;;;;30.32;14.95;;;;;;;0.80;96.49;100251.91;1721752;83;21381;-73
2021/01/07 00:54:47;;;;;;;30.40;13.90;;;;;;;0.83;96.64;100257.13;1723753;81;21693;-74
2021/01/07 00:57:16;;;;;;;33.98;15.18;;;;;;;0.80;96.70;100253.20;1735539;81;21631;-72
2021/01/07 00:59:44;;;;;;;25.60;11.05;;;;;;;0.79;96.83;100257.52;1766186;79;21256;-72
2021/01/07 01:02:12;;;;;;;30.02;14.45;;;;;;;0.83;97.02;100266.20;1766132;81;21173;-71
2021/01/07 01:04:40;;;;;;;35.75;15.45;;;;;;;0.84;97.09;100253.66;1766184;81;21195;-74
2021/01/07 01:07:08;;;;;;;33.50;14.75;;;;;;;0.82;97.28;100243.70;1766158;81;21187;-72
2021/01/07 01:09:35;;;;;;;35.65;15.50;;;;;;;0.83;97.50;100245.02;1766235;80;21130;-72
2021/01/07 01:12:05;;;;;;;33.80;15.00;;;;;;;0.86;97.49;100248.05;1766138;81;21186;-72
2021/01/07 01:14:33;;;;;;;42.00;18.57;;;;;;;0.89;97.51;100248.05;1766568;81;21269;-72
2021/01/07 01:17:01;;;;;;;46.25;19.12;;;;;;;0.87;97.74;100252.36;1745585;81;21274;-72
2021/01/07 01:19:28;;;;;;;42.13;19.27;;;;;;;0.89;97.79;100249.35;1701831;84;21184;-72
2021/01/07 01:21:56;;;;;;;40.10;17.98;;;;;;;0.90;97.73;100239.44;1718182;83;21132;-72
2021/01/07 01:24:23;;;;;;;42.53;17.45;;;;;;;0.94;97.76;100238.56;1734158;82;21192;-70
2021/01/07 01:26:55;;;;;;;36.33;17.80;;;;;;;0.94;97.83;100232.52;1731805;82;21989;-71
2021/01/07 01:29:24;;;;;;;37.70;17.75;;;;;;;0.97;97.74;100229.52;1766309;81;21534;-72
2021/01/07 01:31:52;;;;;;;42.40;21.07;;;;;;;0.95;97.77;100220.86;1766344;81;21576;-74
2021/01/07 01:34:21;;;;;;;37.15;17.60;;;;;;;0.97;97.73;100220.44;1766172;81;21170;-74
2021/01/07 01:36:50;;;;;;;33.83;15.75;;;;;;;0.96;97.70;100213.50;1766303;81;21138;-73
2021/01/07 01:39:18;;;;;;;38.30;17.50;;;;;;;0.99;97.61;100200.57;1759577;81;21176;-73
2021/01/07 01:41:50;;;;;;;31.85;15.63;;;;;;;1.00;97.45;100197.09;1740620;82;21396;-72
2021/01/07 01:44:18;;;;;;;38.13;20.00;;;;;;;1.03;97.38;100197.09;1740437;82;21175;-73
2021/01/07 01:46:46;;;;;;;40.45;19.65;;;;;;;1.04;97.32;100201.44;1740464;82;21221;-72
2021/01/07 01:49:15;;;;;;;42.55;20.72;;;;;;;1.08;97.24;100194.95;1740470;82;21228;-73
2021/01/07 01:51:43;;;;;;;37.20;18.17;;;;;;;1.09;97.15;100193.67;1735651;81;21307;-72
2021/01/07 01:54:10;;;;;;;39.03;20.80;;;;;;;1.12;97.05;100191.52;1739747;82;21810;-72
2021/01/07 01:56:38;;;;;;;41.28;20.43;;;;;;;1.12;96.95;100188.48;1739645;81;21176;-72
2021/01/07 01:59:05;;;;;;;33.45;17.85;;;;;;;1.12;96.92;100186.33;1759653;81;21657;-73
2021/01/07 02:01:33;;;;;;;41.70;20.65;;;;;;;1.17;96.80;100183.30;1766015;80;21150;-72
2021/01/07 02:04:02;;;;;;;40.03;20.82;;;;;;;1.20;96.75;100178.14;1765691;81;21174;-72
2021/01/07 02:06:30;;;;;;;37.33;16.80;;;;;;;1.22;96.76;100169.91;1766897;80;22066;-72
2021/01/07 02:08:58;;;;;;;31.23;14.98;;;;;;;1.21;96.61;100169.48;1749663;81;21627;-72
2021/01/07 02:11:25;;;;;;;32.35;17.65;;;;;;;1.15;96.31;100165.16;1765682;81;21638;-71
2021/01/07 02:13:53;;;;;;;34.65;18.92;;;;;;;1.15;96.28;100161.67;1765882;80;21201;-73
2021/01/07 02:16:24;;;;;;;60.78;38.80;;;;;;;1.13;96.32;100156.51;1765663;81;21175;-72
2021/01/07 02:18:55;;;;;;;43.95;27.27;;;;;;;1.16;96.29;100151.31;1766133;81;21194;-73
2021/01/07 02:21:24;;;;;;;35.23;18.17;;;;;;;1.17;96.18;100154.77;1765535;81;21225;-72
2021/01/07 02:23:54;;;;;;;40.45;19.52;;;;;;;1.17;96.07;100153.03;1762697;81;21102;-71
2021/01/07 02:26:22;;;;;;;41.93;20.97;;;;;;;1.18;95.87;100139.66;1733952;82;21139;-73
2021/01/07 02:28:50;;;;;;;40.98;21.55;;;;;;;1.18;95.72;100143.11;1760778;81;21173;-71
2021/01/07 02:31:19;;;;;;;35.13;18.67;;;;;;;1.16;95.67;100134.89;1749753;81;22163;-70
2021/01/07 02:33:47;;;;;;;47.73;21.75;;;;;;;1.14;95.67;100124.50;1741991;82;21207;-72
2021/01/07 02:36:15;;;;;;;31.55;15.48;;;;;;;1.17;95.55;100121.05;1711887;83;21161;-71
2021/01/07 02:38:43;;;;;;;84.20;28.23;;;;;;;1.14;95.26;100115.42;1733751;82;21670;-71
2021/01/07 02:41:10;;;;;;;78.15;27.27;;;;;;;1.15;95.38;100109.80;1757272;81;21656;-70
2021/01/07 02:43:39;;;;;;;93.87;28.90;;;;;;;1.14;95.43;100108.09;1757385;81;21224;-71
2021/01/07 02:46:08;;;;;;;86.12;26.48;;;;;;;1.17;95.35;100108.94;1757129;81;21589;-70
2021/01/07 02:48:35;;;;;;;70.28;24.37;;;;;;;1.18;95.25;100100.74;1757328;81;21172;-71
2021/01/07 02:51:05;;;;;;;70.08;24.20;;;;;;;1.17;95.36;100092.52;1757326;81;21674;-71
2021/01/07 02:53:33;;;;;;;140.10;34.83;;;;;;;1.19;95.40;100101.16;1757638;81;21188;-71
2021/01/07 02:56:01;;;;;;;67.12;26.40;;;;;;;1.23;95.35;100102.91;1748240;81;21846;-72
2021/01/07 02:58:32;;;;;;;93.50;31.17;;;;;;;1.21;95.25;100102.89;1728495;82;21223;-69
2021/01/07 03:00:59;;;;;;;64.47;25.80;;;;;;;1.21;95.20;100098.14;1725224;82;21294;-72
2021/01/07 03:03:26;;;;;;;74.75;28.92;;;;;;;1.20;95.16;100087.34;1726031;83;21238;-71
2021/01/07 03:05:55;;;;;;;67.32;29.85;;;;;;;1.21;95.08;100089.06;1742776;82;21216;-72
2021/01/07 03:08:22;;;;;;;82.72;31.60;;;;;;;1.20;94.96;100081.72;1705361;84;22311;-72
2021/01/07 03:10:50;;;;;;;56.28;24.43;;;;;;;1.21;94.98;100083.88;1726005;81;21287;-73
2021/01/07 03:13:18;;;;;;;77.30;30.72;;;;;;;1.23;95.04;100078.25;1742822;82;21221;-71
2021/01/07 03:15:46;;;;;;;67.40;30.32;;;;;;;1.23;95.00;100070.03;1705234;82;21167;-74
2021/01/07 03:18:13;;;;;;;53.80;26.07;;;;;;;1.28;94.86;100061.39;1705174;84;21203;-73
2021/01/07 03:20:41;;;;;;;62.08;25.80;;;;;;;1.29;94.82;100065.30;1725894;81;21380;-70
2021/01/07 03:23:09;;;;;;;58.55;27.02;;;;;;;1.27;94.82;100068.31;1742801;82;21659;-72
2021/01/07 03:25:36;;;;;;;72.70;28.05;;;;;;;1.26;94.74;100058.79;1705145;82;21663;-73
2021/01/07 03:28:04;;;;;;;106.37;35.20;;;;;;;1.24;94.59;100056.22;1705133;82;21223;-72
2021/01/07 03:30:32;;;;;;;87.37;33.08;;;;;;;1.26;94.63;100057.49;1724188;80;21241;-72
2021/01/07 03:32:59;;;;;;;80.67;35.08;;;;;;;1.23;94.60;100049.28;1706265;84;22543;-71
2021/01/07 03:35:27;;;;;;;66.77;28.55;;;;;;;1.20;94.60;100041.95;1688447;84;21719;-71
2021/01/07 03:37:55;;;;;;;92.65;33.83;;;;;;;1.23;94.58;100035.45;1706288;84;21182;-71
2021/01/07 03:40:23;;;;;;;92.78;35.15;;;;;;;1.22;94.45;100036.30;1701958;84;21183;-70
2021/01/07 03:42:51;;;;;;;77.78;32.53;;;;;;;1.21;94.54;100034.59;1675054;85;21203;-73
2021/01/07 03:45:18;;;;;;;61.20;25.80;;;;;;;1.20;94.62;100039.36;1692258;84;21445;-71
2021/01/07 03:47:46;;;;;;;52.60;24.35;;;;;;;1.22;94.62;100033.70;1692183;84;21240;-71
2021/01/07 03:50:15;;;;;;;62.73;29.80;;;;;;;1.21;94.64;100045.81;1721303;83;21707;-71
2021/01/07 03:52:42;;;;;;;71.22;32.05;;;;;;;1.18;94.66;100039.78;1706418;84;21185;-71
2021/01/07 03:55:11;;;;;;;66.07;31.50;;;;;;;1.16;94.80;100031.14;1688581;85;21218;-69
2021/01/07 03:57:39;;;;;;;61.13;27.80;;;;;;;1.16;94.90;100022.05;1728946;82;21215;-70
2021/01/07 04:00:09;;;;;;;63.87;28.57;;;;;;;1.18;94.82;100021.62;1743706;82;21607;-68
2021/01/07 04:02:36;;;;;;;52.88;26.20;;;;;;;1.16;94.84;100015.58;1765995;81;21202;-68
2021/01/07 04:05:06;;;;;;;62.67;29.35;;;;;;;1.11;94.99;100014.72;1713841;82;21632;-71
2021/01/07 04:07:37;;;;;;;60.38;28.67;;;;;;;1.07;95.00;100006.06;1734011;82;21192;-70
2021/01/07 04:10:08;;;;;;;66.25;30.72;;;;;;;1.08;95.09;100004.32;1711723;82;21635;-72
2021/01/07 04:12:37;;;;;;;56.88;27.13;;;;;;;1.10;95.06;100000.00;1734255;82;21188;-71
2021/01/07 04:15:06;;;;;;;73.42;35.00;;;;;;;1.13;95.07;100009.06;1757745;81;21219;-73
2021/01/07 04:17:33;;;;;;;66.82;31.95;;;;;;;1.12;95.04;99998.28;1736042;81;21176;-69
2021/01/07 04:20:01;;;;;;;57.35;27.87;;;;;;;1.12;95.14;100004.32;1753933;81;21154;-68
2021/01/07 04:22:30;;;;;;;52.58;25.08;;;;;;;1.17;95.11;100001.72;1751635;81;21161;-69
2021/01/07 04:24:58;;;;;;;48.60;20.20;;;;;;;1.16;95.10;100003.45;1732903;82;21186;-68
2021/01/07 04:27:26;;;;;;;55.40;28.55;;;;;;;1.15;95.21;100012.53;1779706;80;21172;-68
2021/01/07 04:29:53;;;;;;;49.08;24.18;;;;;;;1.13;95.26;100007.77;1779812;80;21144;-69
2021/01/07 04:32:21;;;;;;;49.75;25.48;;;;;;;1.15;95.29;99999.16;1779607;80;21149;-69
2021/01/07 04:34:52;;;;;;;;;;;;;;;1.15;95.46;100002.16;1782427;80;22291;-69
2021/01/07 04:37:20;;;;;;;56.90;27.55;;;;;;;1.12;95.55;99985.31;1760600;80;20244;-69
2021/01/07 04:39:47;;;;;;;45.20;20.57;;;;;;;1.14;95.59;99992.66;1755004;81;21192;-69
2021/01/07 04:42:15;;;;;;;40.28;21.60;;;;;;;1.17;95.69;99993.94;1754809;81;21212;-69
2021/01/07 04:44:43;;;;;;;34.80;16.82;;;;;;;1.17;95.79;100000.42;1754914;81;21148;-71
2021/01/07 04:47:10;;;;;;;45.08;22.45;;;;;;;1.13;95.88;99990.91;1758247;81;21283;-69
2021/01/07 04:49:40;;;;;;;35.92;19.95;;;;;;;1.15;95.92;99987.89;1754881;81;21184;-70
2021/01/07 04:52:07;;;;;;;33.18;16.73;;;;;;;1.20;95.87;99992.66;1733561;81;21149;-69
2021/01/07 04:54:35;;;;;;;31.55;16.52;;;;;;;1.21;95.97;99993.08;1754876;81;21169;-71
2021/01/07 04:57:02;;;;;;;32.17;16.40;;;;;;;1.13;96.20;100000.88;1755916;81;21191;-74
2021/01/07 04:59:30;;;;;;;29.02;14.58;;;;;;;1.14;96.25;100000.44;1757267;81;21671;-72
2021/01/07 05:01:58;;;;;;;26.90;14.47;;;;;;;1.09;96.57;99995.70;1757130;81;21121;-73
2021/01/07 05:04:26;;;;;;;33.05;15.98;;;;;;;1.10;96.62;100002.59;1757356;81;21133;-72
2021/01/07 05:06:54;;;;;;;31.07;15.55;;;;;;;1.09;96.91;99998.29;1756933;78;21159;-72
2021/01/07 05:09:22;;;;;;;37.25;19.48;;;;;;;1.12;96.87;99988.76;1757695;81;21583;-73
2021/01/07 05:11:49;;;;;;;40.38;19.17;;;;;;;1.13;96.85;99980.13;1757291;81;21461;-73
2021/01/07 05:14:17;;;;;;;40.28;18.90;;;;;;;1.15;97.03;99978.41;1757253;81;21148;-72
2021/01/07 05:16:45;;;;;;;35.03;18.12;;;;;;;1.17;96.97;99978.37;1770259;80;21675;-73
2021/01/07 05:19:12;;;;;;;34.78;17.85;;;;;;;1.19;97.04;99981.84;1781974;80;21152;-74
2021/01/07 05:21:40;;;;;;;25.00;13.75;;;;;;;1.19;96.98;99981.84;1781934;80;21148;-72
2021/01/07 05:24:08;;;;;;;28.10;14.70;;;;;;;1.17;96.98;99977.94;1781973;80;22119;-74
2021/01/07 05:26:36;;;;;;;30.65;16.00;;;;;;;1.16;97.06;99973.62;1733350;80;21196;-73
2021/01/07 05:29:04;;;;;;;30.15;15.95;;;;;;;1.17;97.11;99966.70;1733136;80;21706;-72
2021/01/07 05:31:32;;;;;;;30.60;14.38;;;;;;;1.20;97.09;99960.23;1781887;80;21208;-73
2021/01/07 05:34:02;;;;;;;28.92;15.15;;;;;;;1.19;97.22;99959.34;1781796;80;21152;-71
2021/01/07 05:36:31;;;;;;;29.32;15.10;;;;;;;1.19;97.26;99955.90;1768584;80;21212;-72
2021/01/07 05:39:06;;;;;;;27.75;14.87;;;;;;;1.22;97.24;99944.20;1766177;81;21219;-73
2021/01/07 05:41:34;;;;;;;31.65;15.58;;;;;;;1.23;97.17;99940.33;1766304;81;21186;-71
2021/01/07 05:44:08;;;;;;;39.20;17.00;;;;;;;1.22;97.26;99939.02;1766325;80;21114;-71
2021/01/07 05:46:37;;;;;;;32.95;17.05;;;;;;;1.21;97.44;99933.41;1762764;80;21204;-71
2021/01/07 05:49:04;;;;;;;32.00;16.30;;;;;;;1.21;97.34;99925.20;1759382;81;22697;-73
2021/01/07 05:51:32;;;;;;;41.95;19.25;;;;;;;1.23;97.37;99932.98;1759245;81;21156;-73
2021/01/07 05:54:00;;;;;;;44.10;20.43;;;;;;;1.22;97.45;99931.23;1759373;81;21634;-72
2021/01/07 05:56:29;;;;;;;44.83;20.95;;;;;;;1.21;97.56;99918.70;1759377;81;21658;-70
2021/01/07 05:58:57;;;;;;;45.03;21.75;;;;;;;1.24;97.53;99925.61;1709460;81;21153;-70
2021/01/07 06:01:25;;;;;;;48.40;21.17;;;;;;;1.26;97.52;99923.88;1759206;81;21496;-71
2021/01/07 06:03:54;;;;;;;59.10;23.18;;;;;;;1.25;97.61;99924.77;1760083;81;21610;-73
2021/01/07 06:06:23;;;;;;;64.77;27.58;;;;;;;1.24;97.72;99930.80;1760951;81;21158;-73
2021/01/07 06:08:53;;;;;;;64.22;26.57;;;;;;;1.24;97.75;99917.83;1760787;81;21204;-72
2021/01/07 06:11:23;;;;;;;66.28;26.65;;;;;;;1.30;97.70;99933.39;1760915;81;21602;-71
2021/01/07 06:13:53;;;;;;;72.35;27.37;;;;;;;1.32;97.74;99925.17;1775287;80;21376;-69
2021/01/07 06:16:23;;;;;;;76.35;26.62;;;;;;;1.30;97.80;99925.61;1762410;80;21202;-71
2021/01/07 06:18:53;;;;;;;71.10;25.82;;;;;;;1.30;97.73;99933.83;1742516;82;21659;-70
2021/01/07 06:21:24;;;;;;;84.70;30.50;;;;;;;1.32;97.78;99936.00;1711710;83;21194;-71
2021/01/07 06:23:54;;;;;;;;;;;;;;;1.30;97.86;99932.09;1756783;81;21143;-70
2021/01/07 06:26:26;;;;;;;96.65;31.50;;;;;;;1.29;97.91;99930.80;1754884;81;21382;-71
2021/01/07 06:28:59;;;;;;;69.92;23.25;;;;;;;1.28;98.04;99929.94;1742328;82;21177;-70
2021/01/07 06:31:36;;;;;;;100.18;34.33;;;;;;;1.28;98.02;99926.05;1742238;82;21199;-69
2021/01/07 06:34:04;;;;;;;91.32;30.32;;;;;;;1.28;98.13;99924.75;1741927;82;21255;-71
2021/01/07 06:36:41;;;;;;;82.85;31.33;;;;;;;1.31;98.15;99924.77;1742267;82;21667;-70
2021/01/07 06:39:10;;;;;;;78.75;26.07;;;;;;;1.31;98.17;99929.95;1742197;82;22537;-70
2021/01/07 06:41:38;;;;;;;84.50;28.17;;;;;;;1.28;98.22;99920.86;1742360;82;21191;-68
2021/01/07 06:44:06;;;;;;;70.32;24.52;;;;;;;1.26;98.37;99926.48;1734053;81;21746;-68
2021/01/07 06:46:44;;;;;;;62.73;23.95;;;;;;;1.26;98.38;99925.18;1732470;82;21156;-69
2021/01/07 06:49:28;;;;;;;63.40;23.10;;;;;;;1.29;98.41;99929.09;1687621;82;21163;-68
2021/01/07 06:52:00;;;;;;;65.95;23.80;;;;;;;1.30;98.42;99922.16;1732630;82;22062;-69
2021/01/07 06:54:42;;;;;;;55.43;23.47;;;;;;;1.31;98.42;99918.28;1740689;81;21622;-69
2021/01/07 06:57:15;;;;;;;66.35;23.32;;;;;;;1.33;98.42;99928.19;1739632;82;21196;-69
2021/01/07 06:59:59;;;;;;;53.17;21.02;;;;;;;1.32;98.48;99938.15;1720232;83;21256;-68
2021/01/07 07:02:28;;;;;;;60.45;23.25;;;;;;;1.32;98.51;99936.85;1734213;82;21607;-69
2021/01/07 07:05:09;;;;;;;50.63;22.60;;;;;;;1.35;98.46;99926.45;1705258;83;22287;-69
2021/01/07 07:07:46;;;;;;;54.20;24.00;;;;;;;1.39;98.44;99924.73;1717962;83;21196;-69
2021/01/07 07:10:34;;;;;;;45.83;20.72;;;;;;;1.41;98.43;99925.59;1729158;82;21217;-70
2021/01/07 07:13:17;;;;;;;55.50;25.45;;;;;;;1.40;98.43;99915.66;1672844;85;22195;-70
2021/01/07 07:15:47;;;;;;;45.98;21.07;;;;;;;1.43;98.40;99923.41;1661560;83;21193;-69
2021/01/07 07:18:26;;;;;;;39.63;19.98;;;;;;;1.46;98.31;99916.05;1734511;82;21591;-69
2021/01/07 07:20:53;;;;;;;48.55;22.30;;;;;;;1.48;98.30;99914.77;1734901;81;21558;-69
2021/01/07 07:23:24;;;;;;;42.93;19.98;;;;;;;1.45;98.33;99910.01;1744979;81;21202;-70
2021/01/07 07:25:54;;;;;;;99.05;41.83;;;;;;;1.48;98.30;99909.57;1739478;81;21171;-69
2021/01/07 07:28:27;;;;;;;67.82;31.27;;;;;;;1.51;98.23;99900.47;1733565;82;21521;-69
2021/01/07 07:30:54;;;;;;;51.35;23.52;;;;;;;1.51;98.22;99891.38;1697657;82;21637;-69
2021/01/07 07:33:36;;;;;;;40.52;20.35;;;;;;;1.51;98.24;99896.57;1712105;80;21171;-69
2021/01/07 07:36:06;;;;;;;36.77;19.37;;;;;;;1.53;98.16;99896.13;1699423;83;21154;-69
2021/01/07 07:38:40;;;;;;;40.13;18.70;;;;;;;1.54;98.11;99888.77;1705046;82;21182;-70
2021/01/07 07:41:10;;;;;;;43.02;18.42;;;;;;;1.53;98.11;99884.02;1724090;83;21184;-68
2021/01/07 07:43:40;;;;;;;34.18;16.77;;;;;;;1.53;98.12;99879.27;1725285;83;21216;-69
2021/01/07 07:46:08;;;;;;;44.45;18.48;;;;;;;1.58;98.10;99876.20;1722719;82;21497;-69
2021/01/07 07:48:37;;;;;;;62.88;23.00;;;;;;;1.57;98.12;99874.05;1734010;82;21206;-68
2021/01/07 07:51:13;;;;;;;67.90;18.67;;;;;;;1.59;98.14;99871.02;1729128;81;21697;-69
2021/01/07 07:53:40;;;;;;;61.42;21.35;;;;;;;1.59;98.00;99874.91;1726362;83;21343;-68
2021/01/07 07:56:21;;;;;;;62.73;25.35;;;;;;;1.57;98.00;99864.11;1702202;82;22095;-70
2021/01/07 07:59:01;;;;;;;;;;;;;;;1.55;98.15;99851.13;1687069;84;21243;-69
2021/01/07 08:01:47;;;;;;;57.45;20.75;;;;;;;1.59;98.11;99848.95;1733366;82;20247;-70
2021/01/07 08:04:23;;;;;;;35.52;17.87;;;;;;;1.63;98.11;99840.70;1704011;83;21630;-70
2021/01/07 08:06:51;;;;;;;49.33;19.37;;;;;;;1.64;98.17;99832.06;1714799;83;21717;-69
2021/01/07 08:09:20;;;;;;;32.73;15.23;;;;;;;1.63;98.03;99834.21;1715474;83;21673;-69
2021/01/07 08:11:53;;;;;;;45.78;18.27;;;;;;;1.65;97.88;99829.88;1732656;82;22151;-70
2021/01/07 08:14:24;;;;;;;31.27;15.93;;;;;;;1.66;97.82;99819.94;1728272;82;21214;-70
2021/01/07 08:19:35;;;;;;;36.83;16.70;;;;;;;1.72;97.67;99812.09;1819521;77;22753;-69
2021/01/07 08:22:06;;;;;;;31.75;15.18;;;;;;;1.70;97.66;99813.83;1783438;80;21178;-70
2021/01/07 08:24:34;;;;;;;30.97;14.47;;;;;;;1.68;97.68;99807.81;1793914;79;21732;-69
2021/01/07 08:27:21;;;;;;;33.75;13.98;;;;;;;1.68;97.65;99812.56;1815056;79;21569;-69
2021/01/07 08:29:56;;;;;;;32.40;13.03;;;;;;;1.70;97.68;99802.59;1799462;79;21570;-70
2021/01/07 08:32:37;;;;;;;39.73;17.80;;;;;;;1.71;97.66;99806.48;1784424;79;21570;-69
2021/01/07 08:35:12;;;;;;;27.65;13.88;;;;;;;1.71;97.71;99799.14;1783670;80;21186;-67
2021/01/07 08:37:42;;;;;;;;;;;;;;;1.72;97.81;99806.90;1760192;79;21363;-68
2021/01/07 08:40:15;;;;;;;25.75;12.85;;;;;;;1.70;97.92;99793.51;1811792;79;20200;-68
2021/01/07 08:42:43;;;;;;;27.05;11.80;;;;;;;1.68;98.15;99789.64;1802397;79;21160;-67
2021/01/07 08:45:12;;;;;;;24.07;12.07;;;;;;;1.70;98.10;99781.83;1738246;82;21186;-68
2021/01/07 08:47:39;;;;;;;25.30;13.08;;;;;;;1.69;98.17;99780.97;1738440;82;21559;-69
2021/01/07 08:50:13;;;;;;;27.85;12.95;;;;;;;1.74;98.19;99781.80;1736538;82;21393;-69
2021/01/07 08:52:53;;;;;;;53.45;20.45;;;;;;;1.77;98.22;99767.92;1740474;81;21114;-68
2021/01/07 08:55:21;;;;;;;35.80;15.10;;;;;;;1.77;98.25;99767.92;1769166;80;21206;-69
2021/01/07 08:57:49;;;;;;;27.67;13.25;;;;;;;1.76;98.31;99761.02;1720549;78;21175;-70
2021/01/07 09:00:19;;;;;;;46.70;17.45;;;;;;;1.78;98.43;99760.14;1646057;85;21227;-71
2021/01/07 09:02:48;;;;;;;49.27;18.50;;;;;;;1.78;98.39;99760.14;1629201;86;22093;-71
2021/01/07 09:05:18;;;;;;;32.63;14.15;;;;;;;1.79;98.49;99754.06;1635964;87;21183;-73
2021/01/07 09:07:46;;;;;;;35.60;15.53;;;;;;;1.79;98.52;99746.27;1636236;87;21752;-71
2021/01/07 09:10:13;;;;;;;41.65;16.48;;;;;;;1.83;98.56;99748.42;1646390;84;21225;-72
2021/01/07 09:12:41;;;;;;;40.45;15.80;;;;;;;1.83;98.54;99736.73;1625275;87;21233;-71
2021/01/07 09:15:34;;;;;;;52.85;20.72;;;;;;;1.82;98.64;99743.67;1647067;85;22318;-74
2021/01/07 09:18:04;;;;;;;35.98;16.25;;;;;;;1.81;98.71;99736.73;1623369;86;21226;-68
2021/01/07 09:20:33;;;;;;;41.73;21.30;;;;;;;1.83;98.85;99723.31;1592581;88;21332;-70
2021/01/07 09:23:10;;;;;;;29.00;12.98;;;;;;;1.89;98.81;99729.77;1640116;85;21281;-69
2021/01/07 09:25:37;;;;;;;41.50;16.97;;;;;;;1.93;98.95;99724.53;1604323;87;21257;-68
2021/01/07 09:28:05;;;;;;;40.08;19.00;;;;;;;1.91;98.92;99707.69;1636358;85;21876;-69
2021/01/07 09:30:33;;;;;;;32.42;15.38;;;;;;;1.94;98.94;99704.20;1597809;84;21218;-68
2021/01/07 09:33:01;;;;;;;39.60;16.50;;;;;;;1.97;98.89;99697.67;1620609;87;21258;-68
2021/01/07 09:36:25;;;;;;;42.23;16.20;;;;;;;2.04;99.05;99694.14;1760618;79;22514;-68
2021/01/07 09:38:53;;;;;;;35.05;13.48;;;;;;;2.01;99.03;99688.98;1748291;82;21616;-69
2021/01/07 09:41:22;;;;;;;40.73;18.15;;;;;;;2.02;99.02;99688.09;1747790;82;22366;-69
2021/01/07 09:43:49;;;;;;;28.90;13.20;;;;;;;2.04;98.97;99673.36;1745757;82;21142;-67
2021/01/07 09:46:17;;;;;;;36.15;15.58;;;;;;;2.07;99.10;99656.44;1714705;83;21163;-69
2021/01/07 09:48:45;;;;;;;45.80;17.90;;;;;;;2.06;99.20;99667.71;1686166;84;21175;-70
2021/01/07 09:51:13;;;;;;;48.00;18.25;;;;;;;2.09;99.22;99652.09;1679256;84;21171;-69
2021/01/07 09:53:41;;;;;;;33.30;14.83;;;;;;;2.11;99.27;99649.04;1677001;85;21722;-69
2021/01/07 09:56:09;;;;;;;39.65;17.82;;;;;;;2.09;99.31;99641.70;1672849;84;21198;-69
2021/01/07 09:58:36;;;;;;;29.10;13.95;;;;;;;2.14;99.41;99634.73;1666724;85;21682;-68
2021/01/07 10:01:05;;;;;;;47.40;19.67;;;;;;;2.19;99.43;99625.59;1660928;85;21224;-70
2021/01/07 10:03:33;;;;;;;30.10;14.90;;;;;;;2.22;99.48;99623.80;1667684;85;21199;-69
2021/01/07 10:06:00;;;;;;;40.08;18.25;;;;;;;2.24;99.55;99621.20;1667352;85;21681;-69
2021/01/07 10:08:31;;;;;;;62.08;24.40;;;;;;;2.26;99.65;99612.52;1678574;85;22002;-69
2021/01/07 10:10:59;;;;;;;31.87;14.40;;;;;;;2.30;99.63;99606.41;1677851;85;21654;-69
2021/01/07 10:13:26;;;;;;;32.23;14.95;;;;;;;2.30;99.57;99596.02;1665642;85;21614;-69
2021/01/07 10:15:55;;;;;;;34.92;15.88;;;;;;;2.35;99.53;99596.37;1656685;85;21596;-69
2021/01/07 10:18:22;;;;;;;46.33;21.05;;;;;;;2.36;99.58;99591.61;1678981;85;21388;-68
2021/01/07 10:20:57;;;;;;;59.33;24.30;;;;;;;2.40;99.68;99588.11;1670690;85;21254;-69
2021/01/07 10:23:25;;;;;;;44.58;17.77;;;;;;;2.42;99.56;99589.80;1664759;85;21214;-68
2021/01/07 10:25:53;;;;;;;32.98;13.68;;;;;;;2.46;99.43;99582.81;1640453;86;21633;-70
2021/01/07 10:28:21;;;;;;;70.00;24.43;;;;;;;2.47;99.44;99576.30;1623205;85;21420;-69
2021/01/07 10:30:48;;;;;;;24.32;11.83;;;;;;;2.49;99.45;99569.80;1677511;85;21432;-69
2021/01/07 10:33:16;;;;;;;20.52;11.00;;;;;;;2.54;99.33;99569.73;1677407;85;21191;-69
2021/01/07 10:35:44;;;;;;;22.00;10.65;;;;;;;2.59;99.29;99562.28;1679648;80;21664;-73
2021/01/07 10:38:13;;;;;;;19.82;10.20;;;;;;;2.60;99.21;99554.03;1673577;84;21214;-75
2021/01/07 10:40:44;;;;;;;45.12;17.25;;;;;;;2.58;99.07;99552.77;1625583;87;21749;-74
2021/01/07 10:43:13;;;;;;;24.52;11.33;;;;;;;2.62;99.04;99541.46;1631556;86;21391;-74
2021/01/07 10:45:41;;;;;;;48.30;18.87;;;;;;;2.66;98.94;99534.02;1666779;84;21243;-74
2021/01/07 10:50:49;;;;;;;30.07;14.80;;;;;;;2.72;98.75;99520.94;1799525;74;23523;-70
2021/01/07 10:53:46;;;;;;;27.40;13.70;;;;;;;2.72;98.62;99515.73;1677541;83;21228;-70
2021/01/07 10:56:28;;;;;;;36.50;14.18;;;;;;;2.75;98.53;99508.32;1666447;85;21714;-69
2021/01/07 10:59:21;;;;;;;32.73;12.80;;;;;;;2.85;98.63;99502.53;1887257;75;22559;-69
2021/01/07 11:02:14;;;;;;;25.82;12.80;;;;;;;2.85;98.63;99505.13;1858258;77;21178;-69
2021/01/07 11:05:12;;;;;;;27.82;14.10;;;;;;;2.89;98.33;99495.11;1829519;77;21198;-68
2021/01/07 11:08:14;;;;;;;23.15;11.97;;;;;;;2.93;98.25;99495.48;1823363;75;21202;-75
2021/01/07 11:10:52;;;;;;;29.70;13.28;;;;;;;2.94;98.06;99490.68;1793184;79;21126;-74
2021/01/07 11:13:26;;;;;;;25.68;11.63;;;;;;;2.94;97.88;99475.08;1804777;79;21158;-74
2021/01/07 11:15:58;;;;;;;12.65;7.85;;;;;;;2.98;97.74;99474.14;1802072;79;21100;-74
2021/01/07 11:18:29;;;;;;;28.38;14.10;;;;;;;3.00;97.65;99465.88;1734767;81;21382;-74
2021/01/07 11:21:04;;;;;;;25.50;12.25;;;;;;;3.01;97.57;99456.33;1745062;81;21205;-73
2021/01/07 11:23:33;;;;;;;23.83;13.25;;;;;;;3.03;97.53;99451.96;1660476;79;21491;-65
2021/01/07 11:26:01;;;;;;;25.10;10.95;;;;;;;3.05;97.15;99451.05;1595517;87;21226;-66
2021/01/07 11:28:30;;;;;;;70.25;27.37;;;;;;;3.06;97.17;99442.38;1642018;87;21167;-68
2021/01/07 11:30:57;;;;;;;21.70;10.93;;;;;;;3.06;97.17;99431.97;1656192;86;21907;-67
2021/01/07 11:33:26;;;;;;;20.92;11.20;;;;;;;3.07;97.14;99425.86;1642140;87;21210;-64
2021/01/07 11:35:55;;;;;;;15.95;9.43;;;;;;;3.10;97.01;99425.80;1657416;86;21626;-65
2021/01/07 11:38:24;;;;;;;20.57;10.90;;;;;;;3.12;96.97;99421.43;1638852;87;21863;-66
2021/01/07 11:41:02;;;;;;;21.45;11.22;;;;;;;3.12;96.97;99421.43;1654888;86;21233;-67
2021/01/07 11:44:12;;;;;;;35.45;14.80;;;;;;;3.12;96.85;99421.43;1642562;87;21422;-67